Time;durP1;ratioP1;P1;durP2;ratioP2;P2;SDS_P1;SDS_P2;PMS_P1;PMS_P2;Temp;Humidity;BMP_temperature;BMP_pressure;BME280_temperature;BME280_humidity;BME280_pressure;Samples;Min_cycle;Max_cycle;Signal;HPM_P1;HPM_P2
2023/05/22 00:02:03;;;;;;;30.63;17.83;;;;;;;15.19;100.00;101316.84;4899038;29;20036;-89
2023/05/22 00:04:30;;;;;;;36.53;17.47;;;;;;;15.17;100.00;101313.53;4898927;29;20406;-87
2023/05/22 00:06:55;;;;;;;29.30;18.52;;;;;;;15.08;100.00;101302.09;4881929;29;20091;-87
2023/05/22 00:09:23;;;;;;;30.93;18.20;;;;;;;15.08;100.00;101302.09;4898915;29;20103;-88
2023/05/22 00:11:52;;;;;;;30.92;18.80;;;;;;;15.01;100.00;101291.25;4899133;29;20036;-87
2023/05/22 00:14:18;;;;;;;27.88;18.30;;;;;;;15.00;100.00;101294.22;4898849;29;20126;-88
2023/05/22 00:16:43;;;;;;;29.27;18.80;;;;;;;14.96;100.00;101298.53;4882532;29;20466;-88
2023/05/22 00:19:12;;;;;;;33.00;19.27;;;;;;;14.99;100.00;101314.44;4882247;29;20497;-87
2023/05/22 00:21:38;;;;;;;32.47;18.70;;;;;;;14.85;100.00;101302.88;4883051;29;20033;-87
2023/05/22 00:24:06;;;;;;;28.73;18.75;;;;;;;14.89;100.00;101306.81;4866860;29;20041;-87
2023/05/22 00:26:35;;;;;;;36.65;19.85;;;;;;;14.87;100.00;101309.78;4880718;29;20061;-87
2023/05/22 00:29:08;;;;;;;33.70;19.42;;;;;;;14.83;100.00;101307.75;4882054;29;20069;-87
2023/05/22 00:31:33;;;;;;;29.30;19.27;;;;;;;14.77;100.00;101292.28;4899480;29;20107;-88
2023/05/22 00:33:59;;;;;;;33.38;19.80;;;;;;;14.77;100.00;101300.47;4882024;29;20135;-88
2023/05/22 00:36:27;;;;;;;32.37;20.73;;;;;;;14.73;100.00;101300.09;4882499;29;20362;-88
2023/05/22 00:38:52;;;;;;;29.63;19.08;;;;;;;14.67;100.00;101295.56;4881801;29;20389;-87
2023/05/22 00:41:21;;;;;;;32.73;19.87;;;;;;;14.64;100.00;101298.75;4867373;29;20041;-87
2023/05/22 00:43:46;;;;;;;27.60;17.90;;;;;;;14.55;100.00;101288.13;4899003;29;20073;-87
2023/05/22 00:46:12;;;;;;;32.97;19.13;;;;;;;14.52;100.00;101299.50;4881860;29;20139;-87
2023/05/22 00:48:37;;;;;;;36.07;19.13;;;;;;;14.50;100.00;101287.16;4898930;29;20481;-87
2023/05/22 00:51:03;;;;;;;30.48;19.23;;;;;;;14.55;100.00;101300.94;4881863;29;20037;-87
2023/05/22 00:53:29;;;;;;;31.90;18.38;;;;;;;14.51;100.00;101294.28;4881740;29;20123;-88
2023/05/22 00:55:57;;;;;;;33.07;18.77;;;;;;;14.48;100.00;101297.47;4898902;29;20036;-87
2023/05/22 00:58:25;;;;;;;30.35;18.77;;;;;;;14.51;100.00;101306.06;4882112;29;20041;-87
2023/05/22 01:00:51;;;;;;;30.70;19.25;;;;;;;14.47;100.00;101302.09;4882010;29;20497;-87
2023/05/22 01:03:24;;;;;;;32.50;19.17;;;;;;;14.40;100.00;101298.63;4898581;29;20486;-87
2023/05/22 01:05:50;;;;;;;30.45;19.52;;;;;;;14.32;100.00;101291.59;4882909;29;20041;-87
2023/05/22 01:08:17;;;;;;;29.87;19.13;;;;;;;14.36;100.00;101308.34;4881668;29;20073;-87
2023/05/22 01:10:42;;;;;;;30.48;19.08;;;;;;;14.29;100.00;101288.47;4865801;29;20056;-87
2023/05/22 01:13:29;;;;;;;33.27;19.33;;;;;;;14.31;100.00;101303.56;4882480;29;20036;-87
2023/05/22 01:16:08;;;;;;;31.20;19.42;;;;;;;14.32;100.00;101304.38;4882262;29;20545;-87
2023/05/22 01:18:45;;;;;;;28.63;18.33;;;;;;;14.32;100.00;101305.25;4881993;29;20381;-87
2023/05/22 01:21:20;;;;;;;31.80;19.15;;;;;;;14.29;100.00;101297.50;4881407;29;20063;-87
2023/05/22 01:24:19;;;;;;;29.13;19.65;;;;;;;14.27;100.00;101296.06;4898171;29;20028;-87
2023/05/22 01:27:06;;;;;;;32.17;19.77;;;;;;;14.21;100.00;101301.38;4898618;29;20052;-87
2023/05/22 01:29:51;;;;;;;35.22;19.92;;;;;;;14.17;100.00;101300.19;4898678;29;20025;-87
2023/05/22 01:32:21;;;;;;;33.20;19.77;;;;;;;14.14;100.00;101300.63;4898481;29;20033;-87
2023/05/22 01:34:52;;;;;;;32.13;19.83;;;;;;;14.09;100.00;101291.47;4898915;29;20033;-87
2023/05/22 01:37:20;;;;;;;33.97;19.73;;;;;;;14.02;100.00;101289.66;4898844;29;20044;-87
2023/05/22 01:39:46;;;;;;;34.60;20.50;;;;;;;14.00;100.00;101286.31;4885249;29;20553;-87
2023/05/22 01:42:12;;;;;;;36.55;20.80;;;;;;;13.99;100.00;101297.44;4869284;29;20072;-87
2023/05/22 01:44:37;;;;;;;33.10;19.90;;;;;;;13.93;100.00;101299.19;4869523;29;20423;-88
2023/05/22 01:47:04;;;;;;;36.10;19.90;;;;;;;13.89;100.00;101302.59;4884611;29;20537;-88
2023/05/22 01:49:34;;;;;;;35.17;20.98;;;;;;;13.88;100.00;101309.09;4869867;29;20025;-87
2023/05/22 01:52:21;;;;;;;36.47;20.85;;;;;;;13.82;100.00;101292.59;4884773;29;20085;-88
2023/05/22 01:54:57;;;;;;;34.37;19.83;;;;;;;13.83;100.00;101296.13;4884869;29;20033;-87
2023/05/22 01:57:50;;;;;;;31.50;20.05;;;;;;;13.73;100.00;101287.66;4901331;29;20033;-87
2023/05/22 02:00:20;;;;;;;35.78;20.90;;;;;;;13.68;100.00;101289.19;4884480;29;20032;-87
2023/05/22 02:02:55;;;;;;;37.88;20.58;;;;;;;13.68;100.00;101291.06;4884895;29;20068;-87
2023/05/22 02:05:22;;;;;;;35.80;21.80;;;;;;;13.56;100.00;101281.97;4884302;29;20035;-87
2023/05/22 02:07:49;;;;;;;30.80;19.90;;;;;;;13.58;100.00;101285.28;4884616;29;20036;-87
2023/05/22 02:10:15;;;;;;;36.25;22.13;;;;;;;13.53;100.00;101282.41;4901372;29;20024;-87
2023/05/22 02:12:41;;;;;;;35.15;21.63;;;;;;;13.54;100.00;101289.50;4901142;29;20054;-87
2023/05/22 02:15:07;;;;;;;38.33;22.77;;;;;;;13.48;100.00;101281.19;4884476;29;20582;-87
2023/05/22 02:17:39;;;;;;;33.13;21.90;;;;;;;13.48;100.00;101281.19;4901276;29;20041;-87
2023/05/22 02:20:13;;;;;;;37.80;21.95;;;;;;;13.42;100.00;101279.34;4884283;29;20564;-87
2023/05/22 02:22:46;;;;;;;36.17;22.05;;;;;;;13.38;100.00;101272.69;4901335;29;20028;-87
2023/05/22 02:25:13;;;;;;;38.45;22.27;;;;;;;13.42;100.00;101286.69;4884190;29;20546;-88
2023/05/22 02:27:50;;;;;;;40.88;22.65;;;;;;;13.44;100.00;101288.13;4868230;29;20546;-87
2023/05/22 02:30:18;;;;;;;40.53;22.17;;;;;;;13.37;100.00;101268.28;4884975;29;20088;-87
2023/05/22 02:32:44;;;;;;;35.58;22.20;;;;;;;13.44;100.00;101279.97;4900856;29;20028;-87
2023/05/22 02:35:09;;;;;;;41.30;22.73;;;;;;;13.41;100.00;101274.13;4901139;29;20032;-87
2023/05/22 02:37:35;;;;;;;37.80;22.87;;;;;;;13.37;100.00;101272.91;4883717;29;20060;-87
2023/05/22 02:40:01;;;;;;;39.58;22.77;;;;;;;13.35;100.00;101273.13;4900819;29;20028;-87
2023/05/22 02:42:26;;;;;;;34.43;20.83;;;;;;;13.33;100.00;101262.44;4884095;29;20068;-87
2023/05/22 02:44:52;;;;;;;35.37;21.13;;;;;;;13.35;100.00;101258.69;4900588;29;20097;-87
2023/05/22 02:47:17;;;;;;;34.33;21.45;;;;;;;13.43;100.00;101275.56;4883833;29;20032;-87
2023/05/22 02:49:44;;;;;;;33.67;21.63;;;;;;;13.36;100.00;101257.59;4882638;29;20033;-87
2023/05/22 02:52:10;;;;;;;34.25;21.15;;;;;;;13.45;100.00;101264.44;4883707;29;20103;-87
2023/05/22 02:54:35;;;;;;;37.77;22.47;;;;;;;13.45;100.00;101267.16;4883687;29;20472;-87
2023/05/22 02:57:01;;;;;;;33.87;20.67;;;;;;;13.51;100.00;101271.72;4884178;29;20025;-88
2023/05/22 02:59:27;;;;;;;40.17;22.75;;;;;;;13.48;100.00;101264.81;4900479;29;20029;-88
2023/05/22 03:01:55;;;;;;;37.40;21.17;;;;;;;13.44;100.00;101257.31;4883524;29;20028;-88
2023/05/22 03:04:21;;;;;;;36.50;22.60;;;;;;;13.42;100.00;101268.47;4883934;29;20053;-88
2023/05/22 03:06:47;;;;;;;35.22;22.08;;;;;;;13.36;100.00;101257.59;4868577;29;20041;-88
2023/05/22 03:09:14;;;;;;;36.63;21.93;;;;;;;13.32;100.00;101255.28;4883428;29;20028;-88
2023/05/22 03:11:40;;;;;;;33.63;22.02;;;;;;;13.31;100.00;101259.06;4900213;29;20068;-88
2023/05/22 03:14:05;;;;;;;35.47;21.23;;;;;;;13.27;100.00;101259.75;4883741;29;20040;-88
2023/05/22 03:16:31;;;;;;;39.67;23.07;;;;;;;13.31;100.00;101271.88;4899934;29;20092;-88
2023/05/22 03:19:26;;;;;;;34.85;22.17;;;;;;;13.26;100.00;101269.00;4883019;29;20060;-88
2023/05/22 03:21:52;;;;;;;39.63;23.48;;;;;;;13.09;100.00;101252.34;4891542;29;20044;-88
2023/05/22 03:24:17;;;;;;;38.47;22.40;;;;;;;13.05;100.00;101251.13;4883244;29;20484;-88
2023/05/22 03:26:45;;;;;;;36.80;22.15;;;;;;;12.99;100.00;101245.53;4867408;29;20052;-88
2023/05/22 03:29:10;;;;;;;38.83;22.97;;;;;;;12.91;100.00;101253.97;4882435;29;20584;-88
2023/05/22 03:31:36;;;;;;;44.83;23.13;;;;;;;12.86;100.00;101242.06;4899571;29;20119;-88
2023/05/22 03:34:02;;;;;;;41.50;23.43;;;;;;;12.81;100.00;101242.72;4883580;29;20034;-88
2023/05/22 03:36:28;;;;;;;41.83;23.25;;;;;;;12.76;100.00;101243.38;4883424;29;20107;-88
2023/05/22 03:38:54;;;;;;;42.35;23.20;;;;;;;12.84;100.00;101260.50;4852371;29;20045;-88
2023/05/22 03:41:24;;;;;;;40.73;23.07;;;;;;;12.70;100.00;101248.91;4883424;29;20461;-88
2023/05/22 03:43:49;;;;;;;42.30;23.60;;;;;;;12.73;100.00;101259.34;4882746;29;20033;-88
2023/05/22 03:46:15;;;;;;;41.27;25.37;;;;;;;12.64;100.00;101245.97;4867445;29;20044;-88
2023/05/22 03:48:40;;;;;;;45.73;24.43;;;;;;;12.65;100.00;101254.97;4899823;29;20485;-89
2023/05/22 03:51:06;;;;;;;40.77;24.17;;;;;;;12.62;100.00;101253.53;4899731;29;20454;-88
2023/05/22 03:53:31;;;;;;;41.33;24.60;;;;;;;12.63;100.00;101246.19;4882760;29;20315;-88
2023/05/22 03:55:56;;;;;;;40.10;24.30;;;;;;;12.63;100.00;101243.47;4882705;29;20446;-88
2023/05/22 03:58:24;;;;;;;43.27;24.43;;;;;;;12.70;100.00;101262.50;4899402;29;20465;-88
2023/05/22 04:00:52;;;;;;;50.97;24.60;;;;;;;12.64;100.00;101240.53;4899138;29;20081;-88
2023/05/22 04:03:18;;;;;;;44.33;24.23;;;;;;;12.71;100.00;101254.13;4882412;29;20040;-88
2023/05/22 04:05:48;;;;;;;40.78;24.40;;;;;;;12.60;100.00;101233.03;4866716;29;20135;-88
2023/05/22 04:08:13;;;;;;;46.20;24.48;;;;;;;12.57;100.00;101238.91;4882408;29;20028;-88
2023/05/22 04:10:39;;;;;;;47.50;25.73;;;;;;;12.55;100.00;101241.00;4882376;29;20117;-88
2023/05/22 04:13:08;;;;;;;40.30;24.57;;;;;;;12.51;100.00;101235.19;4899197;29;20044;-87
2023/05/22 04:15:34;;;;;;;43.90;24.75;;;;;;;12.49;100.00;101237.28;4899331;29;20033;-88
2023/05/22 04:17:59;;;;;;;43.63;25.80;;;;;;;12.53;100.00;101252.13;4867305;29;20124;-88
2023/05/22 04:20:25;;;;;;;47.00;25.97;;;;;;;12.49;100.00;101242.75;4882974;29;20525;-88
2023/05/22 04:22:53;;;;;;;50.85;25.48;;;;;;;12.46;100.00;101240.47;4881837;29;20043;-88
2023/05/22 04:25:18;;;;;;;42.65;25.35;;;;;;;12.52;100.00;101250.47;4882307;29;20028;-88
2023/05/22 04:27:49;;;;;;;39.47;25.13;;;;;;;12.44;100.00;101253.44;4881994;29;20032;-89
2023/05/22 04:30:18;;;;;;;49.90;25.93;;;;;;;12.46;100.00;101249.44;4867436;29;20037;-88
2023/05/22 04:32:46;;;;;;;45.97;25.17;;;;;;;12.53;100.00;101249.38;4882012;29;20121;-88
2023/05/22 04:35:11;;;;;;;44.95;25.13;;;;;;;12.60;100.00;101252.91;4898680;29;20047;-92
2023/05/22 04:38:00;;;;;;;50.20;25.13;;;;;;;12.63;100.00;101249.75;4881925;29;20402;-88
2023/05/22 04:40:28;;;;;;;44.10;24.20;;;;;;;12.71;100.00;101261.44;4898777;29;20028;-88
2023/05/22 04:42:54;;;;;;;38.65;24.08;;;;;;;12.81;100.00;101267.22;4881755;29;20116;-90
2023/05/22 04:45:24;;;;;;;44.43;24.37;;;;;;;12.90;100.00;101271.38;4898621;29;20061;-88
2023/05/22 04:47:51;;;;;;;48.03;26.17;;;;;;;13.05;100.00;101273.78;4852206;29;20025;-87
2023/05/22 04:50:17;;;;;;;43.97;24.85;;;;;;;13.07;100.00;101279.00;4881527;29;20397;-87
2023/05/22 04:52:45;;;;;;;47.20;25.40;;;;;;;13.13;100.00;101278.09;4898578;29;20130;-87
2023/05/22 04:55:16;;;;;;;45.97;25.83;;;;;;;13.19;100.00;101274.50;4898303;29;20037;-87
2023/05/22 04:57:43;;;;;;;42.95;25.27;;;;;;;13.29;100.00;101279.44;4881711;29;20071;-88
2023/05/22 05:00:12;;;;;;;43.85;25.13;;;;;;;13.39;100.00;101290.72;4898713;29;20032;-88
2023/05/22 05:02:37;;;;;;;44.58;23.48;;;;;;;13.36;100.00;101279.41;4881430;29;20099;-88
2023/05/22 05:05:03;;;;;;;48.40;24.07;;;;;;;13.40;100.00;101284.19;4881685;29;20529;-88
2023/05/22 05:07:29;;;;;;;42.33;23.67;;;;;;;13.47;100.00;101293.13;4866163;29;20037;-88
2023/05/22 05:09:57;;;;;;;41.97;23.57;;;;;;;13.50;100.00;101308.22;4882082;29;20040;-88
2023/05/22 05:12:23;;;;;;;45.90;23.67;;;;;;;13.45;100.00;101291.69;4882144;29;20041;-88
2023/05/22 05:14:48;;;;;;;42.57;23.50;;;;;;;13.53;100.00;101302.31;4902555;29;20038;-87
2023/05/22 05:17:14;;;;;;;46.33;23.73;;;;;;;13.49;100.00;101293.75;4885402;29;20389;-88
2023/05/22 05:19:39;;;;;;;41.95;23.88;;;;;;;13.57;100.00;101305.41;4902393;29;20462;-88
2023/05/22 05:22:05;;;;;;;39.80;24.37;;;;;;;13.45;100.00;101292.53;4885669;29;20115;-88
2023/05/22 05:24:30;;;;;;;46.03;22.92;;;;;;;13.54;100.00;101300.41;4885021;29;20036;-88
2023/05/22 05:26:56;;;;;;;45.37;24.33;;;;;;;13.65;100.00;101310.59;4902024;29;20059;-88
2023/05/22 05:29:22;;;;;;;44.33;23.87;;;;;;;13.62;100.00;101300.13;4884920;29;20056;-88
2023/05/22 05:31:47;;;;;;;50.30;25.75;;;;;;;13.72;100.00;101299.63;4870276;29;20036;-88
2023/05/22 05:34:12;;;;;;;43.00;24.63;;;;;;;13.86;100.00;101303.88;4884878;29;20393;-88
2023/05/22 05:36:41;;;;;;;40.73;23.80;;;;;;;13.92;100.00;101297.53;4884585;29;20371;-88
2023/05/22 05:39:07;;;;;;;48.75;25.35;;;;;;;14.10;100.00;101304.03;4884800;29;20032;-88
2023/05/22 05:41:32;;;;;;;46.83;24.53;;;;;;;14.17;100.00;101311.09;4884705;29;20128;-88
2023/05/22 05:44:02;;;;;;;47.53;24.20;;;;;;;14.17;100.00;101305.63;4901904;29;20036;-88
2023/05/22 05:46:28;;;;;;;45.57;24.20;;;;;;;14.20;100.00;101305.19;4869243;29;20297;-87
2023/05/22 05:48:54;;;;;;;42.15;23.45;;;;;;;14.28;100.00;101301.28;4884781;29;20040;-87
2023/05/22 05:51:26;;;;;;;43.63;23.20;;;;;;;14.40;100.00;101301.34;4869005;29;20526;-85
2023/05/22 05:53:54;;;;;;;44.03;24.63;;;;;;;14.46;100.00;101311.34;4884909;29;20032;-87
2023/05/22 05:56:22;;;;;;;41.40;24.33;;;;;;;14.57;100.00;101315.19;4885287;29;20378;-86
2023/05/22 05:58:47;;;;;;;47.23;23.37;;;;;;;14.64;100.00;101310.50;4884333;29;20032;-89
2023/05/22 06:01:15;;;;;;;45.72;24.15;;;;;;;14.74;100.00;101309.97;4869346;29;20036;-88
2023/05/22 06:03:40;;;;;;;42.63;23.00;;;;;;;14.86;100.00;101319.03;4854111;29;20044;-88
2023/05/22 06:06:09;;;;;;;50.60;24.50;;;;;;;14.94;100.00;101320.63;4901097;29;20033;-89
2023/05/22 06:08:35;;;;;;;44.23;24.40;;;;;;;14.97;100.00;101308.34;4884408;29;20382;-89
2023/05/22 06:11:03;;;;;;;45.03;24.13;;;;;;;15.10;100.00;101313.63;4901928;29;20032;-90
2023/05/22 06:13:28;;;;;;;38.97;24.08;;;;;;;15.25;100.00;101324.09;4900999;29;20070;-89
2023/05/22 06:15:57;;;;;;;46.83;24.70;;;;;;;15.34;100.00;101309.03;4883908;29;20060;-89
2023/05/22 06:18:24;;;;;;;43.53;24.42;;;;;;;15.57;100.00;101312.84;4901033;29;20119;-89
2023/05/22 06:20:50;;;;;;;39.57;23.70;;;;;;;15.75;100.00;101323.69;4901073;29;20036;-89
2023/05/22 06:23:16;;;;;;;50.10;24.27;;;;;;;15.91;100.00;101333.09;4868209;29;20031;-89
2023/05/22 06:25:48;;;;;;;45.85;25.40;;;;;;;15.89;100.00;101329.75;4900016;29;20068;-90
2023/05/22 06:28:14;;;;;;;40.07;23.83;;;;;;;16.02;100.00;101323.22;4883626;29;20048;-90
2023/05/22 06:30:42;;;;;;;42.17;24.35;;;;;;;16.12;100.00;101336.28;4884501;29;20028;-90
2023/05/22 06:33:07;;;;;;;46.33;25.92;;;;;;;16.02;100.00;101319.63;4883361;29;20044;-90
2023/05/22 06:35:35;;;;;;;45.17;25.30;;;;;;;16.01;100.00;101321.53;4883766;29;20032;-89
2023/05/22 06:38:01;;;;;;;46.65;25.92;;;;;;;16.15;100.00;101333.06;4868028;29;20096;-89
2023/05/22 06:40:29;;;;;;;53.13;27.20;;;;;;;16.16;100.00;101323.78;4883473;29;20036;-90
2023/05/22 06:42:57;;;;;;;53.55;28.40;;;;;;;16.08;100.00;101327.72;4900598;29;20028;-90
2023/05/22 06:45:25;;;;;;;56.17;28.65;;;;;;;16.15;100.00;101327.59;4900808;29;20040;-90
2023/05/22 06:47:52;;;;;;;53.53;31.25;;;;;;;16.29;100.00;101339.09;4883187;29;20055;-90
2023/05/22 06:50:19;;;;;;;61.60;30.50;;;;;;;16.33;100.00;101337.56;4883348;29;20045;-89
2023/05/22 06:52:44;;;;;;;68.65;32.40;;;;;;;16.30;100.00;101336.13;4883446;29;20071;-89
2023/05/22 06:55:10;;;;;;;56.37;33.33;;;;;;;16.41;100.00;101336.34;4882935;29;20072;-89
2023/05/22 06:57:38;;;;;;;66.15;33.80;;;;;;;16.48;99.76;101348.81;4900396;29;20043;-89
2023/05/22 07:00:08;;;;;;;65.93;34.45;;;;;;;16.45;99.45;101348.47;4899955;29;20037;-89
2023/05/22 07:02:36;;;;;;;69.63;33.80;;;;;;;16.45;99.70;101338.34;4884284;29;20040;-89
2023/05/22 07:05:08;;;;;;;67.38;34.13;;;;;;;16.63;99.12;101358.41;4900179;29;20063;-89
2023/05/22 07:07:33;;;;;;;67.13;33.33;;;;;;;16.52;99.65;101351.06;4883998;29;20040;-89
2023/05/22 07:10:01;;;;;;;67.60;33.63;;;;;;;16.47;99.30;101347.13;4883518;29;20036;-89
2023/05/22 07:12:27;;;;;;;70.20;34.78;;;;;;;16.46;99.35;101359.19;4899884;29;20039;-90
2023/05/22 07:14:53;;;;;;;72.67;35.57;;;;;;;16.45;100.00;101360.25;4883203;29;20041;-89
2023/05/22 07:17:20;;;;;;;73.93;37.28;;;;;;;16.39;100.00;101361.22;4868076;29;20478;-89
2023/05/22 07:19:48;;;;;;;78.22;37.17;;;;;;;16.34;100.00;101366.59;4868015;29;20037;-89
2023/05/22 07:22:14;;;;;;;75.13;37.50;;;;;;;16.36;100.00;101371.81;4899943;29;20375;-89
2023/05/22 07:24:43;;;;;;;72.93;38.07;;;;;;;16.41;100.00;101369.19;4899576;29;20040;-89
2023/05/22 07:27:10;;;;;;;72.03;37.05;;;;;;;16.65;100.00;101365.31;4882815;29;20057;-89
2023/05/22 07:29:35;;;;;;;73.18;36.22;;;;;;;16.96;99.60;101382.41;4867959;29;20036;-89
2023/05/22 07:32:01;;;;;;;71.93;36.17;;;;;;;16.94;98.26;101367.25;4867644;29;20401;-88
2023/05/22 07:34:30;;;;;;;75.88;37.03;;;;;;;17.01;98.68;101378.91;4867980;29;20035;-88
2023/05/22 07:36:58;;;;;;;67.10;35.00;;;;;;;16.85;98.69;101364.06;4883314;29;20168;-89
2023/05/22 07:39:24;;;;;;;74.05;35.28;;;;;;;16.90;99.39;101364.16;4868083;29;20545;-89
2023/05/22 07:41:49;;;;;;;74.90;35.40;;;;;;;17.31;98.85;101378.63;4882926;29;20060;-92
2023/05/22 07:44:15;;;;;;;77.53;36.88;;;;;;;17.38;97.40;101374.88;4882843;29;20032;-93
2023/05/22 07:46:40;;;;;;;73.30;35.73;;;;;;;17.45;97.33;101365.44;4883476;29;20477;-93
2023/05/22 07:49:06;;;;;;;74.83;36.67;;;;;;;17.68;96.25;101372.63;4884105;29;20347;-94
2023/05/22 07:51:31;;;;;;;75.27;37.50;;;;;;;17.74;95.98;101387.28;4883296;29;20024;-92
2023/05/22 07:53:57;;;;;;;68.30;34.92;;;;;;;17.96;95.64;101370.91;4867962;29;20037;-92
2023/05/22 07:56:26;;;;;;;62.20;34.17;;;;;;;18.17;94.47;101376.69;4882373;29;20119;-93
2023/05/22 07:58:52;;;;;;;76.70;37.22;;;;;;;18.31;92.91;101375.22;4900797;29;20088;-86
2023/05/22 08:01:17;;;;;;;71.50;36.00;;;;;;;18.28;93.19;101388.63;4866725;29;20040;-85
2023/05/22 08:03:43;;;;;;;72.00;37.60;;;;;;;18.31;93.17;101377.16;4882312;29;20040;-87
2023/05/22 08:06:09;;;;;;;71.80;36.90;;;;;;;18.48;92.17;101375.16;4866561;29;20036;-86
2023/05/22 08:08:35;;;;;;;78.50;38.25;;;;;;;18.72;90.51;101389.47;4882503;29;20051;-86
2023/05/22 08:11:00;;;;;;;75.60;38.47;;;;;;;18.90;90.11;101388.34;4882208;29;20524;-86
2023/05/22 08:13:28;;;;;;;79.07;39.60;;;;;;;18.99;90.15;101388.69;4882100;29;20029;-86
2023/05/22 08:15:54;;;;;;;73.82;37.80;;;;;;;19.04;89.05;101388.75;4881965;29;20036;-87
2023/05/22 08:18:21;;;;;;;80.23;38.70;;;;;;;18.98;89.71;101383.47;4882226;29;20029;-87
2023/05/22 08:20:46;;;;;;;75.43;39.78;;;;;;;19.02;88.71;101377.19;4882826;29;20041;-86
2023/05/22 08:23:12;;;;;;;80.03;39.90;;;;;;;19.33;88.25;101380.22;4866453;29;20038;-87
2023/05/22 08:25:37;;;;;;;76.23;38.77;;;;;;;19.49;86.76;101369.34;4881678;29;20142;-85
2023/05/22 08:28:03;;;;;;;75.77;39.57;;;;;;;19.42;85.93;101381.41;4881909;29;20044;-86
2023/05/22 08:30:28;;;;;;;82.40;41.03;;;;;;;19.52;86.56;101377.91;4882177;29;20556;-86
2023/05/22 08:32:54;;;;;;;85.63;41.23;;;;;;;19.58;85.80;101382.38;4866721;29;20036;-86
2023/05/22 08:35:19;;;;;;;74.00;41.10;;;;;;;19.55;85.47;101385.66;4881973;29;20487;-86
2023/05/22 08:37:44;;;;;;;72.50;42.57;;;;;;;19.73;84.40;101380.84;4882411;29;20025;-86
2023/05/22 08:40:13;;;;;;;77.20;41.20;;;;;;;19.94;83.90;101379.88;4882016;29;20358;-86
2023/05/22 08:42:39;;;;;;;85.25;42.00;;;;;;;19.75;83.44;101384.13;4866225;29;20139;-87
2023/05/22 08:45:05;;;;;;;79.83;42.40;;;;;;;19.40;84.97;101374.50;4866332;29;20124;-86
2023/05/22 08:47:33;;;;;;;81.30;41.95;;;;;;;19.31;86.53;101382.44;4881165;29;20037;-87
2023/05/22 08:49:59;;;;;;;82.20;41.50;;;;;;;19.41;85.73;101382.53;4881642;29;20469;-87
2023/05/22 08:52:41;;;;;;;112.53;44.50;;;;;;;19.27;85.86;101389.53;4898573;29;20028;-88
2023/05/22 08:55:07;;;;;;;86.75;43.53;;;;;;;19.45;86.45;101385.56;4899075;29;20052;-87
2023/05/22 08:57:34;;;;;;;81.65;43.17;;;;;;;19.64;84.98;101388.75;4882153;29;20092;-87
2023/05/22 08:59:59;;;;;;;77.68;39.28;;;;;;;19.61;83.57;101383.78;4898229;29;20033;-86
2023/05/22 09:02:25;;;;;;;81.43;44.13;;;;;;;19.38;85.87;101383.00;4866715;29;20366;-87
2023/05/22 09:04:51;;;;;;;74.57;41.08;;;;;;;19.75;85.49;101384.13;4898071;29;20041;-88
2023/05/22 09:07:17;;;;;;;76.73;40.60;;;;;;;20.04;83.85;101383.81;4881752;29;20437;-87
2023/05/22 09:09:42;;;;;;;68.88;38.67;;;;;;;20.10;81.84;101385.50;4898678;29;20032;-86
2023/05/22 09:12:09;;;;;;;71.67;38.60;;;;;;;20.02;81.20;101384.09;4898647;29;20080;-87
2023/05/22 09:14:39;;;;;;;71.55;38.67;;;;;;;19.88;82.26;101391.97;4898407;29;20115;-85
2023/05/22 09:17:05;;;;;;;68.70;38.33;;;;;;;19.61;83.72;101387.34;4866120;29;20033;-86
2023/05/22 09:19:30;;;;;;;68.55;37.08;;;;;;;19.93;82.59;101385.66;4881407;29;20572;-86
2023/05/22 09:22:12;;;;;;;70.50;39.53;;;;;;;20.32;81.43;101379.84;4866110;29;20036;-86
2023/05/22 09:24:42;;;;;;;68.67;38.27;;;;;;;20.55;78.71;101386.84;4881565;29;20304;-86
2023/05/22 09:27:09;;;;;;;67.80;36.47;;;;;;;20.72;78.14;101381.13;4897974;29;20094;-85
2023/05/22 09:29:51;;;;;;;63.85;35.85;;;;;;;20.79;78.25;101378.94;4898273;29;20100;-86
2023/05/22 09:32:17;;;;;;;63.00;37.38;;;;;;;20.67;78.91;101381.13;4865777;29;20048;-86
2023/05/22 09:34:43;;;;;;;65.05;34.33;;;;;;;20.74;78.10;101389.94;4866216;29;20032;-86
2023/05/22 09:37:11;;;;;;;60.20;35.97;;;;;;;20.57;79.53;101376.38;4865764;29;20032;-87
2023/05/22 09:39:55;;;;;;;58.97;34.50;;;;;;;20.77;78.87;101372.88;4881500;29;20040;-87
2023/05/22 09:42:23;;;;;;;56.10;33.20;;;;;;;21.03;76.83;101378.44;4881617;29;20466;-85
2023/05/22 09:44:50;;;;;;;60.50;33.90;;;;;;;20.93;77.66;101367.41;4881867;29;20067;-86
2023/05/22 09:47:16;;;;;;;54.00;32.15;;;;;;;20.98;77.29;101370.19;4866540;29;20064;-86
2023/05/22 09:49:43;;;;;;;60.37;33.73;;;;;;;20.89;78.32;101372.66;4881680;29;20108;-86
2023/05/22 09:52:11;;;;;;;59.03;34.05;;;;;;;21.09;76.07;101385.63;4881199;29;20060;-86
2023/05/22 09:55:00;;;;;;;55.42;33.17;;;;;;;21.22;76.71;101378.75;4881154;29;20127;-86
2023/05/22 09:57:29;;;;;;;51.20;29.88;;;;;;;21.52;75.55;101374.38;4897416;29;20031;-89
2023/05/22 09:59:58;;;;;;;48.50;30.23;;;;;;;22.24;73.36;101372.31;4900931;29;20064;-89
2023/05/22 10:02:25;;;;;;;50.35;31.85;;;;;;;22.38;71.29;101358.75;4884679;29;20032;-88
2023/05/22 10:04:52;;;;;;;52.60;32.20;;;;;;;22.11;72.29;101372.91;4901159;29;20032;-90
2023/05/22 10:07:31;;;;;;;48.38;31.33;;;;;;;22.19;72.75;101350.22;4884696;29;20076;-91
2023/05/22 10:10:03;;;;;;;52.28;32.00;;;;;;;22.24;72.63;101375.06;4901349;29;20394;-91
2023/05/22 10:12:32;;;;;;;48.43;29.57;;;;;;;22.41;71.84;101363.72;4901345;29;20040;-89
2023/05/22 10:15:01;;;;;;;44.28;29.52;;;;;;;22.26;71.81;101363.75;4901268;29;20039;-90
2023/05/22 10:17:28;;;;;;;50.90;30.08;;;;;;;22.30;71.26;101364.84;4885078;29;20039;-89
2023/05/22 10:19:56;;;;;;;47.20;30.33;;;;;;;22.42;70.56;101350.72;4869698;29;20043;-91
2023/05/22 10:22:24;;;;;;;45.78;30.23;;;;;;;22.49;71.45;101351.25;4885484;29;20454;-92
2023/05/22 10:24:51;;;;;;;46.90;30.40;;;;;;;22.74;69.82;101364.09;4901844;29;20040;-93
2023/05/22 10:27:17;;;;;;;43.85;28.48;;;;;;;23.05;68.93;101354.81;4884291;29;20548;-89
2023/05/22 10:29:55;;;;;;;49.67;29.35;;;;;;;23.39;68.53;101351.25;4901429;29;20036;-93
2023/05/22 10:32:33;;;;;;;42.60;28.67;;;;;;;23.81;67.15;101358.03;4884851;29;20075;-93
2023/05/22 10:35:24;;;;;;;41.03;28.35;;;;;;;23.77;65.51;101368.06;4885388;29;20029;-94
2023/05/22 10:37:55;;;;;;;45.85;29.80;;;;;;;23.69;66.72;101339.03;4901155;29;20033;-94
2023/05/22 10:40:27;;;;;;;52.20;28.38;;;;;;;23.73;66.72;101350.38;4884390;29;20132;-94
2023/05/22 10:43:01;;;;;;;42.28;27.48;;;;;;;24.13;64.92;101342.78;4884588;29;20036;-92
2023/05/22 10:45:30;;;;;;;41.93;27.93;;;;;;;24.62;62.78;101336.06;4883669;29;20025;-88
2023/05/22 10:48:08;;;;;;;41.63;27.15;;;;;;;24.76;64.05;101350.03;4883736;29;20032;-86
2023/05/22 10:50:36;;;;;;;46.25;28.00;;;;;;;25.00;60.32;101338.84;4884376;29;20041;-86
2023/05/22 10:53:25;;;;;;;41.08;26.55;;;;;;;25.27;61.32;101337.28;4883358;29;20036;-86
2023/05/22 10:56:08;;;;;;;43.83;27.42;;;;;;;25.54;59.23;101341.31;4883950;29;20040;-86
2023/05/22 10:58:37;;;;;;;45.47;27.63;;;;;;;25.52;58.14;101332.47;4883856;29;20043;-86
2023/05/22 11:01:09;;;;;;;46.13;27.27;;;;;;;25.93;57.81;101340.03;4883720;29;20055;-86
2023/05/22 11:04:10;;;;;;;39.25;26.60;;;;;;;26.24;58.84;101329.16;4883723;29;20041;-87
2023/05/22 11:07:14;;;;;;;40.75;26.02;;;;;;;26.40;56.97;101343.56;4883641;29;20036;-87
2023/05/22 11:09:46;;;;;;;40.28;26.42;;;;;;;26.96;54.82;101329.53;4842532;29;20044;-86
2023/05/22 11:12:23;;;;;;;38.70;24.87;;;;;;;27.18;54.71;101325.94;4899699;29;20116;-86